createdAt,value
2023-03-20T00:02:22.139Z,10.95
2023-03-20T00:04:49.614Z,10.93
2023-03-20T00:07:17.042Z,10.83
2023-03-20T00:09:44.364Z,10.83
2023-03-20T00:12:17.383Z,10.82
2023-03-20T00:14:44.889Z,10.69
2023-03-20T00:17:18.344Z,10.62
2023-03-20T00:19:46.890Z,10.57
2023-03-20T00:22:14.196Z,10.64
2023-03-20T00:24:41.561Z,10.59
2023-03-20T00:27:16.577Z,10.55
2023-03-20T00:29:44.299Z,10.41
2023-03-20T00:32:13.188Z,10.42
2023-03-20T00:34:41.055Z,10.46
2023-03-20T00:37:11.663Z,10.45
2023-03-20T00:39:40.012Z,10.40
2023-03-20T00:42:13.616Z,10.34
2023-03-20T00:44:53.988Z,10.35
2023-03-20T00:47:25.607Z,10.41
2023-03-20T00:49:55.905Z,10.46
2023-03-20T00:52:24.168Z,10.34
2023-03-20T00:54:52.377Z,10.35
2023-03-20T00:57:28.497Z,10.37
2023-03-20T00:59:59.925Z,10.37
2023-03-20T01:02:29.916Z,10.44
2023-03-20T01:04:58.186Z,10.53
2023-03-20T01:07:26.664Z,10.50
2023-03-20T01:09:54.042Z,10.53
2023-03-20T01:12:21.381Z,10.50
2023-03-20T01:14:55.158Z,10.57
2023-03-20T01:17:24.072Z,10.49
2023-03-20T01:19:52.150Z,10.45
2023-03-20T01:22:19.684Z,10.50
2023-03-20T01:24:47.437Z,10.60
2023-03-20T01:27:33.070Z,10.67
2023-03-20T01:30:00.783Z,10.72
2023-03-20T01:32:28.108Z,10.80
2023-03-20T01:34:55.471Z,10.72
2023-03-20T01:37:26.696Z,10.73
2023-03-20T01:39:57.224Z,10.74
2023-03-20T01:42:25.270Z,10.69
2023-03-20T01:44:53.019Z,10.70
2023-03-20T01:47:24.283Z,10.68
2023-03-20T01:50:13.596Z,10.79
2023-03-20T01:52:41.169Z,10.80
2023-03-20T01:55:08.788Z,10.79
2023-03-20T01:57:37.677Z,10.81
2023-03-20T02:00:15.624Z,10.83
2023-03-20T02:02:46.440Z,10.71
2023-03-20T02:05:23.204Z,10.75
2023-03-20T02:08:11.994Z,10.74
2023-03-20T02:10:40.422Z,10.79
2023-03-20T02:13:20.399Z,10.82
2023-03-20T02:16:08.264Z,10.84
2023-03-20T02:18:51.729Z,10.74
2023-03-20T02:21:25.917Z,10.75
2023-03-20T02:24:19.254Z,10.80
2023-03-20T02:27:17.143Z,10.85
2023-03-20T02:30:32.948Z,10.87
2023-03-20T02:33:15.778Z,10.83
2023-03-20T02:36:23.729Z,10.87
2023-03-20T02:39:16.273Z,10.83
2023-03-20T02:41:55.822Z,10.83
2023-03-20T02:44:28.118Z,10.81
2023-03-20T02:47:08.455Z,10.83
2023-03-20T02:49:46.971Z,10.77
2023-03-20T02:52:25.288Z,10.70
2023-03-20T02:55:10.879Z,10.62
2023-03-20T02:57:56.800Z,10.64
2023-03-20T03:00:35.634Z,10.67
2023-03-20T03:03:22.793Z,10.63
2023-03-20T03:05:56.350Z,10.66
2023-03-20T03:08:28.767Z,10.61
2023-03-20T03:11:04.186Z,10.60
2023-03-20T03:13:33.836Z,10.57
2023-03-20T03:16:09.911Z,10.58
2023-03-20T03:18:39.627Z,10.43
2023-03-20T03:21:09.204Z,10.40
2023-03-20T03:23:49.566Z,10.27
2023-03-20T03:26:25.566Z,10.24
2023-03-20T03:29:01.843Z,10.20
2023-03-20T03:31:31.869Z,10.21
2023-03-20T03:34:01.411Z,10.20
2023-03-20T03:36:28.687Z,10.15
2023-03-20T03:39:03.279Z,10.07
2023-03-20T03:41:30.542Z,10.07
2023-03-20T03:44:16.272Z,10.03
2023-03-20T03:46:53.745Z,10.03
2023-03-20T03:49:29.392Z,10.15
2023-03-20T03:52:01.648Z,10.15
2023-03-20T03:54:40.594Z,10.14
2023-03-20T03:57:38.197Z,10.29
2023-03-20T04:00:11.788Z,10.36
2023-03-20T04:02:46.735Z,10.38
2023-03-20T04:05:16.752Z,10.42
2023-03-20T04:07:52.538Z,10.36
2023-03-20T04:10:19.909Z,10.43
2023-03-20T04:12:47.580Z,10.51
2023-03-20T04:15:16.674Z,10.45
2023-03-20T04:17:44.928Z,10.52
2023-03-20T04:20:14.702Z,10.55
2023-03-20T04:22:42.182Z,10.43
2023-03-20T04:25:23.535Z,10.20
2023-03-20T04:27:53.931Z,10.20
2023-03-20T04:30:33.644Z,10.03
2023-03-20T04:33:13.932Z,9.79
2023-03-20T04:35:52.402Z,9.80
2023-03-20T04:38:20.595Z,9.92
2023-03-20T04:40:52.412Z,9.96
2023-03-20T04:43:19.872Z,9.96
2023-03-20T04:45:47.605Z,9.94
2023-03-20T04:48:15.312Z,9.97
2023-03-20T04:50:42.766Z,9.94
2023-03-20T04:53:10.372Z,9.78
2023-03-20T04:55:37.929Z,9.72
2023-03-20T04:58:05.820Z,9.72
2023-03-20T05:00:33.695Z,9.71
2023-03-20T05:03:01.514Z,9.77
2023-03-20T05:05:29.799Z,9.69
2023-03-20T05:07:57.267Z,9.83
2023-03-20T05:10:32.285Z,9.73
2023-03-20T05:13:06.427Z,9.69
2023-03-20T05:15:56.845Z,9.57
2023-03-20T05:18:37.493Z,9.62
2023-03-20T05:21:16.211Z,9.58
2023-03-20T05:24:06.681Z,9.53
2023-03-20T05:26:46.543Z,9.49
2023-03-20T05:29:26.120Z,9.44
2023-03-20T05:32:12.885Z,9.38
2023-03-20T05:34:56.110Z,9.59
2023-03-20T05:37:32.900Z,9.81
2023-03-20T05:40:08.242Z,9.57
2023-03-20T05:42:52.984Z,9.44
2023-03-20T05:45:38.950Z,9.32
2023-03-20T05:48:29.103Z,9.27
2023-03-20T05:51:11.477Z,9.32
2023-03-20T05:53:59.162Z,9.41
2023-03-20T05:56:59.311Z,9.66
2023-03-20T05:59:49.482Z,9.57
2023-03-20T06:02:51.869Z,9.64
2023-03-20T06:05:38.317Z,9.68
2023-03-20T06:08:06.107Z,9.65
2023-03-20T06:10:33.764Z,9.53
2023-03-20T06:13:01.421Z,9.57
2023-03-20T06:15:30.390Z,9.72
2023-03-20T06:18:05.900Z,9.63
2023-03-20T06:20:33.764Z,9.62
2023-03-20T06:23:03.782Z,9.80
2023-03-20T06:25:31.753Z,10.01
2023-03-20T06:27:59.189Z,9.99
2023-03-20T06:30:27.053Z,9.78
2023-03-20T06:32:54.980Z,9.82
2023-03-20T06:35:25.568Z,10.09
2023-03-20T06:37:52.964Z,10.24
2023-03-20T06:40:25.569Z,10.53
2023-03-20T06:42:53.800Z,11.50
2023-03-20T06:45:22.869Z,12.41
2023-03-20T06:47:58.869Z,12.80
2023-03-20T06:50:27.226Z,12.79
2023-03-20T06:52:54.982Z,13.09
2023-03-20T06:55:40.892Z,13.62
2023-03-20T06:58:08.257Z,14.44
2023-03-20T07:00:37.715Z,14.71
2023-03-20T07:03:06.787Z,14.80
2023-03-20T07:05:35.577Z,14.42
2023-03-20T07:08:07.813Z,13.71
2023-03-20T07:10:36.184Z,12.83
2023-03-20T07:13:04.493Z,12.36
2023-03-20T07:15:32.516Z,12.26
2023-03-20T07:17:59.958Z,12.14
2023-03-20T07:20:28.491Z,12.12
2023-03-20T07:22:55.981Z,12.09
2023-03-20T07:25:41.408Z,11.93
2023-03-20T07:28:11.881Z,11.88
2023-03-20T07:30:42.705Z,11.87
2023-03-20T07:33:11.166Z,11.96
2023-03-20T07:35:39.871Z,12.13
2023-03-20T07:38:08.158Z,12.28
2023-03-20T07:40:43.484Z,12.34
2023-03-20T07:43:16.274Z,12.72
2023-03-20T07:45:58.589Z,13.26
2023-03-20T07:48:25.936Z,15.01
2023-03-20T07:50:53.817Z,16.20
2023-03-20T07:53:21.553Z,17.04
2023-03-20T07:55:49.423Z,16.89
2023-03-20T07:58:16.834Z,17.98
2023-03-20T08:00:44.340Z,18.37
2023-03-20T08:03:12.006Z,18.22
2023-03-20T08:05:39.422Z,19.00
2023-03-20T08:08:07.178Z,19.89
2023-03-20T08:10:34.616Z,20.00
2023-03-20T08:13:02.076Z,20.81
2023-03-20T08:15:29.385Z,20.79
2023-03-20T08:17:58.923Z,21.09
2023-03-20T08:20:26.799Z,20.68
2023-03-20T08:22:54.321Z,20.48
2023-03-20T08:25:22.345Z,20.29
2023-03-20T08:27:49.911Z,21.43
2023-03-20T08:30:17.279Z,22.29
2023-03-20T08:32:44.605Z,20.92
2023-03-20T08:35:29.825Z,20.68
2023-03-20T08:38:00.767Z,22.07
2023-03-20T08:40:29.152Z,22.07
2023-03-20T08:42:57.301Z,21.90
2023-03-20T08:45:26.218Z,22.81
2023-03-20T08:47:53.553Z,22.67
2023-03-20T08:50:20.938Z,22.88
2023-03-20T08:52:48.321Z,22.43
2023-03-20T08:55:16.824Z,22.60
2023-03-20T08:57:44.267Z,22.29
2023-03-20T09:00:14.441Z,22.21
2023-03-20T09:02:43.233Z,22.75
2023-03-20T09:05:11.202Z,22.98
2023-03-20T09:07:38.515Z,23.30
2023-03-20T09:10:06.473Z,23.26
2023-03-20T09:12:33.933Z,23.13
2023-03-20T09:15:01.566Z,24.17
2023-03-20T09:17:29.047Z,22.78
2023-03-20T09:19:56.454Z,23.48
2023-03-20T09:22:24.047Z,23.24
2023-03-20T09:24:51.336Z,22.89
2023-03-20T09:27:18.649Z,23.27
2023-03-20T09:29:45.970Z,23.59
2023-03-20T09:32:15.321Z,23.76
2023-03-20T09:34:42.892Z,23.43
2023-03-20T09:37:10.794Z,23.52
2023-03-20T09:39:38.522Z,23.39
2023-03-20T09:42:47.285Z,23.73
2023-03-20T09:45:27.193Z,23.80
2023-03-20T09:48:06.330Z,24.53
2023-03-20T09:50:58.202Z,24.26
2023-03-20T09:53:33.594Z,23.92
2023-03-20T09:56:01.627Z,24.34
2023-03-20T09:58:38.780Z,24.13
2023-03-20T10:01:08.243Z,23.64
2023-03-20T10:03:44.805Z,24.11
2023-03-20T10:06:14.693Z,23.72
2023-03-20T10:08:43.086Z,23.11
2023-03-20T10:11:10.536Z,23.62
2023-03-20T10:13:37.795Z,22.63
2023-03-20T10:16:05.071Z,22.26
2023-03-20T10:18:37.837Z,22.77
2023-03-20T10:21:13.611Z,22.49
2023-03-20T10:24:04.660Z,23.74
2023-03-20T10:26:36.595Z,22.78
2023-03-20T10:30:00.589Z,22.60
2023-03-20T10:32:27.889Z,23.83
2023-03-20T10:35:10.398Z,23.38
2023-03-20T10:37:49.127Z,23.57
2023-03-20T10:40:32.096Z,24.06
2023-03-20T10:43:04.114Z,23.21
2023-03-20T10:45:57.734Z,23.38
2023-03-20T10:48:39.085Z,22.92
2023-03-20T10:51:14.736Z,22.47
2023-03-20T10:54:00.008Z,22.83
2023-03-20T10:56:40.794Z,23.31
2023-03-20T10:59:29.609Z,22.53
2023-03-20T11:01:56.981Z,22.42
2023-03-20T11:04:24.562Z,21.93
2023-03-20T11:07:12.127Z,22.66
2023-03-20T11:09:39.500Z,22.82
2023-03-20T11:12:18.005Z,22.82
2023-03-20T11:14:45.528Z,22.89
2023-03-20T11:17:13.026Z,22.25
2023-03-20T11:19:42.090Z,21.83
2023-03-20T11:22:15.126Z,22.34
2023-03-20T11:24:45.947Z,22.73
2023-03-20T11:27:18.034Z,22.71
2023-03-20T11:29:51.155Z,22.42
2023-03-20T11:32:31.404Z,21.97
2023-03-20T11:35:18.324Z,21.40
2023-03-20T11:37:49.036Z,21.75
2023-03-20T11:40:23.355Z,21.91
2023-03-20T11:43:09.858Z,21.60
2023-03-20T11:45:39.865Z,22.78
2023-03-20T11:48:18.875Z,22.21
2023-03-20T11:51:06.770Z,21.88
2023-03-20T11:53:58.168Z,21.79
2023-03-20T11:56:28.832Z,21.57
2023-03-20T11:58:59.016Z,22.05
2023-03-20T12:01:28.510Z,22.47
2023-03-20T12:03:56.062Z,21.52
2023-03-20T12:06:27.185Z,22.14
2023-03-20T12:09:03.010Z,21.86
2023-03-20T12:11:46.538Z,22.53
2023-03-20T12:14:33.976Z,22.49
2023-03-20T12:17:33.014Z,21.20
2023-03-20T12:20:48.666Z,21.46
2023-03-20T12:23:48.737Z,22.29
2023-03-20T12:26:36.110Z,22.29
2023-03-20T12:29:55.213Z,21.98
2023-03-20T12:32:34.677Z,21.93
2023-03-20T12:35:21.489Z,21.95
2023-03-20T12:37:48.897Z,21.41
2023-03-20T12:40:19.050Z,21.24
2023-03-20T12:43:18.612Z,21.55
2023-03-20T12:45:57.137Z,21.21
2023-03-20T12:49:06.401Z,21.21
2023-03-20T12:51:56.372Z,21.43
2023-03-20T12:55:13.297Z,21.60
2023-03-20T12:57:52.547Z,22.29
2023-03-20T13:00:26.395Z,21.95
2023-03-20T13:03:31.237Z,21.40
2023-03-20T13:06:14.326Z,22.21
2023-03-20T13:09:18.748Z,21.33
2023-03-20T13:11:56.094Z,21.23
2023-03-20T13:14:49.388Z,20.64
2023-03-20T13:17:53.988Z,20.24
2023-03-20T13:20:30.710Z,20.31
2023-03-20T13:23:13.710Z,19.98
2023-03-20T13:26:02.389Z,20.36
2023-03-20T13:28:32.820Z,20.05
2023-03-20T13:31:29.307Z,20.50
2023-03-20T13:34:18.091Z,20.62
2023-03-20T13:36:52.538Z,20.06
2023-03-20T13:39:19.773Z,20.28
2023-03-20T13:41:49.263Z,20.49
2023-03-20T13:44:21.018Z,20.92
2023-03-20T13:47:01.698Z,21.07
2023-03-20T13:49:50.823Z,20.74
2023-03-20T13:52:32.137Z,21.14
2023-03-20T13:55:24.041Z,21.32
2023-03-20T13:57:57.389Z,20.41
2023-03-20T14:00:38.002Z,20.48
2023-03-20T14:03:11.684Z,20.98
2023-03-20T14:05:43.591Z,21.04
2023-03-20T14:08:38.305Z,20.65
2023-03-20T14:11:20.942Z,19.74
2023-03-20T14:13:53.976Z,19.50
2023-03-20T14:16:22.060Z,19.23
2023-03-20T14:19:06.320Z,19.40
2023-03-20T14:21:35.709Z,19.80
2023-03-20T14:24:06.618Z,19.94
2023-03-20T14:26:44.665Z,19.82
2023-03-20T14:29:11.972Z,19.51
2023-03-20T14:31:42.249Z,19.12
2023-03-20T14:34:12.596Z,19.37
2023-03-20T14:36:59.263Z,19.53
2023-03-20T14:39:38.832Z,19.54
2023-03-20T14:42:15.750Z,19.33
2023-03-20T14:45:28.646Z,19.64
2023-03-20T14:48:05.280Z,19.85
2023-03-20T14:50:47.903Z,20.02
2023-03-20T14:53:26.381Z,20.02
2023-03-20T14:55:56.761Z,19.85
2023-03-20T14:58:49.767Z,19.69
2023-03-20T15:01:23.531Z,20.05
2023-03-20T15:03:52.705Z,19.89
2023-03-20T15:06:22.254Z,19.98
2023-03-20T15:08:55.445Z,19.29
2023-03-20T15:11:24.575Z,19.45
2023-03-20T15:13:54.011Z,19.69
2023-03-20T15:16:33.315Z,19.28
2023-03-20T15:19:01.285Z,19.12
2023-03-20T15:21:38.043Z,19.06
2023-03-20T15:24:05.686Z,19.12
2023-03-20T15:26:35.200Z,19.03
2023-03-20T15:29:11.154Z,18.90
2023-03-20T15:31:39.706Z,18.83
2023-03-20T15:34:11.637Z,18.97
2023-03-20T15:36:40.316Z,19.22
2023-03-20T15:39:15.663Z,18.97
2023-03-20T15:42:10.219Z,18.48
2023-03-20T15:44:40.968Z,18.51
2023-03-20T15:47:15.336Z,18.37
2023-03-20T15:49:43.303Z,18.41
2023-03-20T15:52:32.354Z,18.48
2023-03-20T15:55:28.120Z,18.30
2023-03-20T15:57:59.095Z,18.23
2023-03-20T16:00:34.505Z,18.20
2023-03-20T16:03:06.933Z,18.13
2023-03-20T16:05:35.743Z,18.05
2023-03-20T16:08:26.251Z,17.98
2023-03-20T16:11:01.636Z,17.88
2023-03-20T16:13:36.206Z,17.85
2023-03-20T16:16:07.662Z,17.83
2023-03-20T16:18:38.249Z,17.71
2023-03-20T16:21:15.908Z,17.65
2023-03-20T16:23:47.454Z,17.45
2023-03-20T16:26:17.893Z,17.32
2023-03-20T16:28:52.494Z,17.41
2023-03-20T16:31:26.786Z,17.31
2023-03-20T16:34:02.280Z,17.18
2023-03-20T16:36:32.260Z,17.15
2023-03-20T16:39:05.654Z,17.09
2023-03-20T16:41:35.966Z,17.10
2023-03-20T16:44:28.949Z,17.09
2023-03-20T16:47:17.218Z,17.04
2023-03-20T16:49:44.501Z,16.99
2023-03-20T16:52:14.727Z,16.93
2023-03-20T16:54:44.325Z,16.80
2023-03-20T16:57:17.649Z,16.66
2023-03-20T16:59:45.519Z,16.47
2023-03-20T17:02:23.826Z,16.54
2023-03-20T17:04:56.260Z,16.41
2023-03-20T17:07:28.283Z,16.39
2023-03-20T17:09:58.918Z,16.31
2023-03-20T17:12:31.243Z,16.15
2023-03-20T17:14:58.927Z,16.04
2023-03-20T17:17:27.017Z,16.05
2023-03-20T17:19:54.980Z,15.96
2023-03-20T17:22:25.292Z,16.03
2023-03-20T17:24:52.784Z,15.89
2023-03-20T17:27:21.078Z,15.92
2023-03-20T17:29:51.212Z,15.82
2023-03-20T17:32:23.854Z,15.69
2023-03-20T17:34:52.021Z,15.60
2023-03-20T17:37:29.828Z,15.60
2023-03-20T17:39:57.746Z,15.55
2023-03-20T17:42:31.093Z,15.47
2023-03-20T17:45:00.249Z,15.40
2023-03-20T17:47:29.352Z,15.36
2023-03-20T17:49:57.206Z,15.28
2023-03-20T17:52:27.014Z,15.37
2023-03-20T17:54:54.983Z,15.55
2023-03-20T17:57:36.258Z,15.31
2023-03-20T18:00:06.568Z,15.22
2023-03-20T18:02:34.927Z,15.11
2023-03-20T18:05:02.354Z,15.04
2023-03-20T18:07:29.814Z,14.90
2023-03-20T18:09:57.176Z,14.89
2023-03-20T18:12:24.544Z,14.80
2023-03-20T18:14:51.852Z,14.60
2023-03-20T18:17:19.204Z,14.50
2023-03-20T18:19:46.672Z,14.38
2023-03-20T18:22:14.004Z,14.38
2023-03-20T18:24:44.073Z,14.46
2023-03-20T18:27:12.641Z,14.44
2023-03-20T18:29:40.009Z,14.51
2023-03-20T18:32:07.457Z,14.34
2023-03-20T18:34:34.827Z,14.23
2023-03-20T18:37:04.574Z,14.25
2023-03-20T18:39:31.901Z,14.07
2023-03-20T18:41:59.252Z,13.98
2023-03-20T18:44:26.577Z,13.93
2023-03-20T18:46:53.905Z,14.03
2023-03-20T18:49:22.230Z,13.93
2023-03-20T18:51:49.754Z,13.88
2023-03-20T18:54:17.022Z,13.87
2023-03-20T18:56:44.663Z,13.78
2023-03-20T18:59:12.967Z,13.74
2023-03-20T19:01:40.796Z,13.73
2023-03-20T19:04:08.474Z,13.82
2023-03-20T19:06:36.066Z,13.85
2023-03-20T19:09:05.275Z,13.65
2023-03-20T19:11:32.586Z,13.75
2023-03-20T19:13:59.914Z,13.80
2023-03-20T19:16:30.793Z,13.78
2023-03-20T19:19:01.299Z,13.76
2023-03-20T19:21:30.300Z,13.72
2023-03-20T19:24:00.325Z,13.66
2023-03-20T19:26:29.833Z,13.56
2023-03-20T19:28:59.454Z,13.41
2023-03-20T19:31:27.848Z,13.41
2023-03-20T19:33:56.784Z,13.39
2023-03-20T19:36:35.708Z,13.33
2023-03-20T19:39:05.531Z,13.19
2023-03-20T19:41:33.168Z,13.27
2023-03-20T19:44:01.526Z,13.18
2023-03-20T19:46:39.673Z,13.21
2023-03-20T19:49:20.495Z,13.27
2023-03-20T19:51:49.333Z,13.20
2023-03-20T19:54:17.514Z,13.16
2023-03-20T19:56:44.972Z,13.28
2023-03-20T19:59:16.006Z,13.29
2023-03-20T20:01:45.489Z,13.38
2023-03-20T20:04:13.180Z,13.46
2023-03-20T20:06:41.905Z,13.36
2023-03-20T20:09:09.482Z,13.28
2023-03-20T20:11:36.844Z,13.15
2023-03-20T20:14:08.050Z,13.15
2023-03-20T20:16:39.623Z,13.13
2023-03-20T20:19:07.510Z,13.04
2023-03-20T20:24:23.715Z,13.11
2023-03-20T20:26:59.694Z,13.11
2023-03-20T20:29:34.670Z,13.10
2023-03-20T20:32:02.413Z,12.94
2023-03-20T20:40:07.939Z,12.79
2023-03-20T20:42:38.223Z,12.66
2023-03-20T20:45:10.070Z,12.51
2023-03-20T20:47:40.968Z,12.54
2023-03-20T20:50:09.381Z,12.38
2023-03-20T20:52:39.746Z,12.33
2023-03-20T20:55:22.231Z,12.26
2023-03-20T20:57:56.066Z,12.24
2023-03-20T21:00:37.182Z,12.24
2023-03-20T21:03:12.963Z,12.26
2023-03-20T21:05:42.948Z,12.37
2023-03-20T21:08:12.079Z,12.23
2023-03-20T21:10:40.096Z,12.27
2023-03-20T21:13:08.411Z,12.32
2023-03-20T21:15:36.264Z,12.39
2023-03-20T21:18:04.002Z,12.30
2023-03-20T21:20:49.852Z,12.26
2023-03-20T21:23:17.596Z,12.27
2023-03-20T21:25:47.805Z,12.23
2023-03-20T21:28:15.683Z,12.17
2023-03-20T21:31:09.150Z,12.03
2023-03-20T21:33:32.008Z,12.05
2023-03-20T21:35:59.958Z,12.02
2023-03-20T21:39:06.757Z,11.97
2023-03-20T21:41:15.365Z,11.97
2023-03-20T21:43:46.515Z,11.91
2023-03-20T21:46:47.994Z,11.87
2023-03-20T21:55:10.246Z,11.63
2023-03-20T22:01:00.773Z,11.63
2023-03-20T22:03:09.826Z,11.73
2023-03-20T22:06:47.806Z,11.73
2023-03-20T22:20:29.123Z,11.73
2023-03-20T22:28:49.637Z,11.82
2023-03-20T22:31:40.853Z,11.84
2023-03-20T22:39:54.438Z,11.70
2023-03-20T22:44:59.856Z,11.77
2023-03-20T22:47:28.217Z,11.74
2023-03-20T22:49:55.716Z,11.52
2023-03-20T22:52:34.717Z,11.42
2023-03-20T22:55:02.445Z,11.40
2023-03-20T22:57:41.128Z,11.34
2023-03-20T23:00:15.228Z,11.47
2023-03-20T23:02:42.840Z,11.49
2023-03-20T23:05:11.715Z,11.48
2023-03-20T23:07:39.839Z,11.56
2023-03-20T23:10:09.716Z,11.47
2023-03-20T23:12:38.276Z,11.57
2023-03-20T23:15:06.408Z,11.55
2023-03-20T23:17:33.847Z,11.57
2023-03-20T23:20:11.028Z,11.57
2023-03-20T23:22:39.401Z,11.63
2023-03-20T23:25:16.526Z,11.64
2023-03-20T23:27:51.346Z,11.58
2023-03-20T23:30:20.645Z,11.57
2023-03-20T23:32:48.225Z,11.64
2023-03-20T23:35:15.846Z,11.68
2023-03-20T23:37:43.213Z,11.55
2023-03-20T23:40:11.395Z,11.49
2023-03-20T23:42:38.789Z,11.36
2023-03-20T23:45:19.251Z,11.33
2023-03-20T23:47:48.240Z,11.30
2023-03-20T23:50:27.714Z,11.40
2023-03-20T23:53:09.455Z,11.18
2023-03-20T23:55:43.024Z,11.09
2023-03-20T23:58:11.741Z,11.04
